Time;durP1;ratioP1;P1;durP2;ratioP2;P2;SDS_P1;SDS_P2;PMS_P1;PMS_P2;Temp;Humidity;BMP_temperature;BMP_pressure;BME280_temperature;BME280_humidity;BME280_pressure;Samples;Min_cycle;Max_cycle;Signal;HPM_P1;HPM_P2
2022/02/24 00:00:55;;;;;;;;;;;17.70;40.50;;;;;;5072601;28;19989;-69
2022/02/24 00:03:22;;;;;;;;;;;17.70;40.50;;;;;;5072654;28;19908;-69
2022/02/24 00:05:48;;;;;;;;;;;17.70;40.50;;;;;;5072914;28;19909;-69
2022/02/24 00:08:14;;;;;;;;;;;17.70;40.60;;;;;;5054553;28;20015;-67
2022/02/24 00:10:39;;;;;;;;;;;17.60;40.50;;;;;;5073177;28;19974;-69
2022/02/24 00:13:05;;;;;;;;;;;17.60;40.60;;;;;;5072799;28;20367;-69
2022/02/24 00:15:30;;;;;;;;;;;17.70;40.60;;;;;;5072858;28;20359;-69
2022/02/24 00:17:56;;;;;;;;;;;17.60;40.60;;;;;;5072837;28;19908;-69
2022/02/24 00:20:21;;;;;;;;;;;17.60;40.60;;;;;;5072993;28;19908;-69
2022/02/24 00:22:47;;;;;;;;;;;17.60;40.50;;;;;;5072735;28;19915;-69
2022/02/24 00:25:12;;;;;;;;;;;17.60;40.60;;;;;;5072479;28;19909;-69
2022/02/24 00:27:38;;;;;;;;;;;17.60;40.60;;;;;;5072400;28;20395;-69
2022/02/24 00:30:04;;;;;;;;;;;17.60;40.60;;;;;;5072395;28;20565;-69
2022/02/24 00:32:30;;;;;;;;;;;17.60;40.60;;;;;;5072197;28;19908;-69
2022/02/24 00:34:55;;;;;;;;;;;17.60;40.60;;;;;;5072416;28;19908;-69
2022/02/24 00:37:21;;;;;;;;;;;17.60;40.60;;;;;;5072316;28;20220;-69
2022/02/24 00:39:46;;;;;;;;;;;17.60;40.60;;;;;;5072345;28;19908;-69
2022/02/24 00:42:12;;;;;;;;;;;17.60;40.60;;;;;;5072423;28;19999;-69
2022/02/24 00:44:37;;;;;;;;;;;17.60;40.60;;;;;;5072223;28;19908;-69
2022/02/24 00:47:03;;;;;;;;;;;17.60;40.60;;;;;;5072105;28;19958;-69
2022/02/24 00:49:28;;;;;;;;;;;17.60;40.60;;;;;;5072176;28;19908;-69
2022/02/24 00:51:54;;;;;;;;;;;17.60;40.60;;;;;;5072237;28;19912;-69
2022/02/24 00:54:19;;;;;;;;;;;17.60;40.70;;;;;;5072130;28;19981;-69
2022/02/24 00:56:45;;;;;;;;;;;17.60;40.60;;;;;;5071040;28;20371;-69
2022/02/24 00:59:10;;;;;;;;;;;17.60;40.60;;;;;;5071981;28;19927;-69
2022/02/24 01:01:35;;;;;;;;;;;17.60;40.60;;;;;;5072519;28;19924;-70
2022/02/24 01:04:01;;;;;;;;;;;17.60;40.60;;;;;;5076176;28;19909;-70
2022/02/24 01:06:26;;;;;;;;;;;17.60;40.60;;;;;;5076055;28;19955;-69
2022/02/24 01:08:52;;;;;;;;;;;17.60;40.70;;;;;;5076021;28;19908;-69
2022/02/24 01:11:17;;;;;;;;;;;17.60;40.60;;;;;;5075985;28;19962;-69
2022/02/24 01:13:43;;;;;;;;;;;17.50;40.60;;;;;;5075946;28;20349;-69
2022/02/24 01:16:08;;;;;;;;;;;17.60;40.70;;;;;;5076003;28;19915;-69
2022/02/24 01:18:33;;;;;;;;;;;17.60;40.60;;;;;;5075795;28;19999;-69
2022/02/24 01:20:59;;;;;;;;;;;17.50;40.70;;;;;;5075752;28;19915;-69
2022/02/24 01:23:24;;;;;;;;;;;17.60;40.70;;;;;;5075808;28;19908;-69
2022/02/24 01:25:50;;;;;;;;;;;17.50;40.70;;;;;;5075770;28;20339;-69
2022/02/24 01:28:15;;;;;;;;;;;17.50;40.70;;;;;;5075618;28;19916;-69
2022/02/24 01:30:41;;;;;;;;;;;17.50;40.70;;;;;;5075588;28;20287;-69
2022/02/24 01:33:06;;;;;;;;;;;17.50;40.70;;;;;;5075533;28;19908;-69
2022/02/24 01:35:32;;;;;;;;;;;17.50;40.70;;;;;;5075674;28;19908;-70
2022/02/24 01:37:57;;;;;;;;;;;17.60;40.70;;;;;;5075566;28;20368;-69
2022/02/24 01:40:23;;;;;;;;;;;17.50;40.70;;;;;;5075639;28;19908;-69
2022/02/24 01:42:49;;;;;;;;;;;17.50;40.70;;;;;;5075534;28;20409;-69
2022/02/24 01:45:14;;;;;;;;;;;17.50;40.70;;;;;;5075482;28;19909;-70
2022/02/24 01:47:41;;;;;;;;;;;17.50;40.70;;;;;;5075275;28;20249;-69
2022/02/24 01:50:07;;;;;;;;;;;17.50;40.70;;;;;;5075424;28;19916;-69
2022/02/24 01:52:33;;;;;;;;;;;17.50;40.70;;;;;;5057352;28;20311;-70
2022/02/24 01:54:58;;;;;;;;;;;17.50;40.70;;;;;;5075339;28;19969;-69
2022/02/24 01:57:24;;;;;;;;;;;17.50;40.70;;;;;;5075237;28;19959;-69
2022/02/24 01:59:50;;;;;;;;;;;17.50;40.70;;;;;;5075157;28;20364;-69
2022/02/24 02:02:15;;;;;;;;;;;17.50;40.80;;;;;;5075541;28;19961;-70
2022/02/24 02:04:42;;;;;;;;;;;17.50;40.70;;;;;;5075342;28;19913;-69
2022/02/24 02:07:07;;;;;;;;;;;17.50;40.80;;;;;;5075152;28;19923;-69
2022/02/24 02:09:33;;;;;;;;;;;17.50;40.80;;;;;;5074986;28;19908;-69
2022/02/24 02:11:59;;;;;;;;;;;17.50;40.70;;;;;;5075035;28;19908;-69
2022/02/24 02:14:24;;;;;;;;;;;17.50;40.80;;;;;;5074068;28;19909;-69
2022/02/24 02:16:51;;;;;;;;;;;17.50;40.70;;;;;;5075131;28;19909;-69
2022/02/24 02:19:17;;;;;;;;;;;17.50;40.80;;;;;;5075201;28;19950;-69
2022/02/24 02:21:43;;;;;;;;;;;17.50;40.80;;;;;;5074848;28;19909;-69
2022/02/24 02:24:08;;;;;;;;;;;17.50;40.80;;;;;;5074950;28;19946;-69
2022/02/24 02:26:35;;;;;;;;;;;17.50;40.80;;;;;;5074810;28;20287;-70
2022/02/24 02:29:00;;;;;;;;;;;17.50;40.80;;;;;;5074734;28;19912;-69
2022/02/24 02:31:26;;;;;;;;;;;17.50;40.80;;;;;;5074686;28;19962;-69
2022/02/24 02:34:17;;;;;;;;;;;17.50;40.80;;;;;;5074565;28;19909;-69
2022/02/24 02:36:45;;;;;;;;;;;17.50;40.80;;;;;;5072660;28;20327;-70
2022/02/24 02:39:11;;;;;;;;;;;17.50;40.80;;;;;;5074715;28;20325;-69
2022/02/24 02:41:37;;;;;;;;;;;17.50;40.80;;;;;;5074633;28;19952;-69
2022/02/24 02:44:02;;;;;;;;;;;17.50;40.80;;;;;;5074620;28;19909;-69
2022/02/24 02:46:28;;;;;;;;;;;17.50;40.80;;;;;;5074708;28;20210;-70
2022/02/24 02:48:54;;;;;;;;;;;17.50;40.80;;;;;;5074722;28;20007;-69
2022/02/24 02:51:19;;;;;;;;;;;17.40;40.80;;;;;;5074589;28;19915;-69
2022/02/24 02:53:45;;;;;;;;;;;17.50;40.80;;;;;;5074389;28;19953;-70
2022/02/24 02:56:12;;;;;;;;;;;17.50;40.80;;;;;;5074330;28;19920;-69
2022/02/24 02:58:37;;;;;;;;;;;17.50;40.80;;;;;;5074676;28;19946;-69
2022/02/24 03:01:03;;;;;;;;;;;17.50;40.80;;;;;;5074174;28;19920;-69
2022/02/24 03:03:28;;;;;;;;;;;17.40;40.80;;;;;;5074376;28;19958;-69
2022/02/24 03:05:55;;;;;;;;;;;17.50;40.80;;;;;;5074384;28;20291;-69
2022/02/24 03:08:20;;;;;;;;;;;17.40;40.80;;;;;;5074237;28;19921;-70
2022/02/24 03:10:46;;;;;;;;;;;17.40;40.80;;;;;;5074146;28;20375;-69
2022/02/24 03:13:12;;;;;;;;;;;17.40;40.90;;;;;;5074240;28;19909;-69
2022/02/24 03:15:38;;;;;;;;;;;17.50;40.80;;;;;;5074087;28;19908;-70
2022/02/24 03:18:03;;;;;;;;;;;17.50;40.90;;;;;;5074015;28;19954;-70
2022/02/24 03:20:31;;;;;;;;;;;17.50;40.90;;;;;;5073860;28;19908;-70
2022/02/24 03:23:00;;;;;;;;;;;17.40;40.80;;;;;;5073706;28;19940;-69
2022/02/24 03:25:26;;;;;;;;;;;17.40;40.90;;;;;;5073419;28;19952;-70
2022/02/24 03:27:52;;;;;;;;;;;17.40;40.90;;;;;;5073611;28;19923;-70
2022/02/24 03:30:18;;;;;;;;;;;17.40;40.90;;;;;;5073763;28;19909;-69
2022/02/24 03:32:45;;;;;;;;;;;17.40;40.90;;;;;;5073747;28;19912;-70
2022/02/24 03:35:10;;;;;;;;;;;17.40;40.90;;;;;;5055278;28;19924;-69
2022/02/24 03:37:36;;;;;;;;;;;17.40;40.90;;;;;;5073246;28;20370;-69
2022/02/24 03:40:03;;;;;;;;;;;17.40;40.90;;;;;;5073174;28;19909;-69
2022/02/24 03:42:29;;;;;;;;;;;17.40;40.90;;;;;;5073144;28;19915;-69
2022/02/24 03:44:54;;;;;;;;;;;17.40;40.90;;;;;;5073264;28;19913;-68
2022/02/24 03:47:22;;;;;;;;;;;17.40;40.90;;;;;;5073266;28;19917;-69
2022/02/24 03:49:48;;;;;;;;;;;17.30;40.90;;;;;;5073098;28;20260;-69
2022/02/24 03:52:14;;;;;;;;;;;17.40;40.90;;;;;;5073175;28;19970;-68
2022/02/24 03:54:40;;;;;;;;;;;17.40;40.90;;;;;;5073082;28;19915;-69
2022/02/24 03:57:05;;;;;;;;;;;17.40;40.90;;;;;;5073341;28;20007;-70
2022/02/24 03:59:31;;;;;;;;;;;17.40;40.90;;;;;;5073084;28;20252;-69
2022/02/24 04:01:57;;;;;;;;;;;17.40;40.90;;;;;;5073243;28;20382;-70
2022/02/24 04:04:23;;;;;;;;;;;17.40;41.00;;;;;;5073093;28;19909;-69
2022/02/24 04:06:48;;;;;;;;;;;17.40;40.90;;;;;;5073149;28;19916;-68
2022/02/24 04:09:14;;;;;;;;;;;17.40;41.00;;;;;;5072882;28;19912;-69
2022/02/24 04:11:39;;;;;;;;;;;17.40;40.90;;;;;;5072891;28;19935;-69
2022/02/24 04:14:06;;;;;;;;;;;17.40;40.90;;;;;;5072941;28;19909;-69
2022/02/24 04:16:31;;;;;;;;;;;17.40;41.00;;;;;;5072997;28;19909;-69
2022/02/24 04:18:57;;;;;;;;;;;17.40;40.90;;;;;;5072804;28;20046;-69
2022/02/24 04:21:22;;;;;;;;;;;17.30;41.00;;;;;;5072879;28;19915;-69
2022/02/24 04:23:48;;;;;;;;;;;17.40;41.00;;;;;;5072773;28;19912;-70
2022/02/24 04:26:13;;;;;;;;;;;17.30;41.00;;;;;;5072869;28;19934;-69
2022/02/24 04:28:39;;;;;;;;;;;17.40;41.00;;;;;;5072901;28;19999;-69
2022/02/24 04:31:04;;;;;;;;;;;17.30;41.00;;;;;;5072773;28;19931;-69
2022/02/24 04:33:30;;;;;;;;;;;17.40;41.00;;;;;;5072726;28;20048;-70
2022/02/24 04:35:55;;;;;;;;;;;17.30;41.00;;;;;;5072850;28;19909;-70
2022/02/24 04:38:21;;;;;;;;;;;17.30;41.00;;;;;;5076058;28;19931;-69
2022/02/24 04:40:46;;;;;;;;;;;17.30;41.00;;;;;;5077016;28;20027;-70
2022/02/24 04:43:12;;;;;;;;;;;17.30;41.00;;;;;;5058868;28;19962;-70
2022/02/24 04:45:37;;;;;;;;;;;17.30;41.00;;;;;;5076578;28;20272;-69
2022/02/24 04:48:03;;;;;;;;;;;17.30;41.00;;;;;;5076603;28;20368;-69
2022/02/24 04:50:28;;;;;;;;;;;17.30;41.00;;;;;;5076473;28;19908;-69
2022/02/24 04:52:54;;;;;;;;;;;17.30;41.00;;;;;;5076552;28;19920;-69
2022/02/24 04:55:19;;;;;;;;;;;17.30;41.00;;;;;;5076496;28;20014;-69
2022/02/24 04:57:45;;;;;;;;;;;17.30;41.00;;;;;;5058442;28;19908;-69
2022/02/24 05:00:10;;;;;;;;;;;17.30;41.00;;;;;;5076227;28;19921;-69
2022/02/24 05:02:36;;;;;;;;;;;17.30;41.00;;;;;;5076143;28;19909;-69
2022/02/24 05:05:02;;;;;;;;;;;17.30;41.10;;;;;;5076183;28;20391;-70
2022/02/24 05:07:27;;;;;;;;;;;17.30;41.00;;;;;;5075946;28;19939;-69
2022/02/24 05:09:53;;;;;;;;;;;17.30;41.10;;;;;;5076021;28;19915;-70
2022/02/24 05:12:18;;;;;;;;;;;17.30;41.00;;;;;;5076108;28;20007;-69
2022/02/24 05:14:44;;;;;;;;;;;17.30;41.10;;;;;;5075982;28;19919;-70
2022/02/24 05:17:09;;;;;;;;;;;17.30;41.10;;;;;;5076087;28;20400;-69
2022/02/24 05:19:35;;;;;;;;;;;17.30;41.10;;;;;;5058032;28;19908;-70
2022/02/24 05:22:00;;;;;;;;;;;17.30;41.00;;;;;;5075872;28;19913;-69
2022/02/24 05:24:26;;;;;;;;;;;17.30;41.10;;;;;;5076111;28;19912;-70
2022/02/24 05:26:51;;;;;;;;;;;17.30;41.10;;;;;;5075844;28;19920;-70
2022/02/24 05:29:17;;;;;;;;;;;17.30;41.00;;;;;;5075712;28;20366;-69
2022/02/24 05:31:42;;;;;;;;;;;17.30;41.10;;;;;;5074779;28;19951;-70
2022/02/24 05:34:07;;;;;;;;;;;17.30;41.10;;;;;;5075844;28;20387;-69
2022/02/24 05:36:33;;;;;;;;;;;17.30;41.10;;;;;;5075797;28;20443;-69
2022/02/24 05:38:58;;;;;;;;;;;17.30;41.10;;;;;;5057771;28;19908;-69
2022/02/24 05:41:24;;;;;;;;;;;17.30;41.10;;;;;;5076034;28;20332;-69
2022/02/24 05:43:51;;;;;;;;;;;17.30;41.10;;;;;;5075704;28;19909;-69
2022/02/24 05:46:17;;;;;;;;;;;17.30;41.10;;;;;;5075595;28;19995;-69
2022/02/24 05:48:43;;;;;;;;;;;17.30;41.10;;;;;;5074128;28;20409;-69
2022/02/24 05:51:10;;;;;;;;;;;17.30;41.10;;;;;;5075324;28;19908;-70
2022/02/24 05:53:36;;;;;;;;;;;17.30;41.10;;;;;;5075370;28;20509;-69
2022/02/24 05:56:02;;;;;;;;;;;17.30;41.10;;;;;;5074199;28;19909;-69
2022/02/24 05:58:27;;;;;;;;;;;17.30;41.10;;;;;;5075092;28;19908;-69
2022/02/24 06:00:53;;;;;;;;;;;17.30;41.10;;;;;;5074953;28;19920;-69
2022/02/24 06:03:18;;;;;;;;;;;17.20;41.10;;;;;;5075112;28;19909;-69
2022/02/24 06:05:46;;;;;;;;;;;17.30;41.20;;;;;;5075079;28;19997;-69
2022/02/24 06:08:11;;;;;;;;;;;17.30;41.10;;;;;;5057103;28;20387;-69
2022/02/24 06:10:36;;;;;;;;;;;17.30;41.10;;;;;;5075043;28;19909;-69
2022/02/24 06:13:02;;;;;;;;;;;17.20;41.20;;;;;;5075237;28;19912;-69
2022/02/24 06:15:27;;;;;;;;;;;17.20;41.20;;;;;;5074921;28;19915;-69
2022/02/24 06:17:53;;;;;;;;;;;17.20;41.20;;;;;;5056846;28;20490;-69
2022/02/24 06:20:18;;;;;;;;;;;17.20;41.20;;;;;;5074795;28;19969;-69
2022/02/24 06:22:47;;;;;;;;;;;17.20;41.20;;;;;;5074838;28;20294;-69
2022/02/24 06:25:12;;;;;;;;;;;17.20;41.20;;;;;;5056589;28;19912;-68
2022/02/24 06:27:38;;;;;;;;;;;17.20;41.20;;;;;;5074400;28;20355;-69
2022/02/24 06:30:04;;;;;;;;;;;17.20;41.20;;;;;;5073253;28;19974;-69
2022/02/24 06:32:29;;;;;;;;;;;17.20;41.20;;;;;;5074312;28;19912;-69
2022/02/24 06:34:55;;;;;;;;;;;17.30;41.20;;;;;;5074170;28;19916;-69
2022/02/24 06:37:21;;;;;;;;;;;17.20;41.20;;;;;;5074627;28;20361;-69
2022/02/24 06:39:47;;;;;;;;;;;17.20;41.20;;;;;;5074614;28;19909;-69
2022/02/24 06:42:13;;;;;;;;;;;17.20;41.30;;;;;;5074434;28;20394;-69
2022/02/24 06:44:38;;;;;;;;;;;17.20;41.20;;;;;;5074338;28;19908;-69
2022/02/24 06:47:04;;;;;;;;;;;17.20;41.30;;;;;;5074089;28;20375;-69
2022/02/24 06:49:30;;;;;;;;;;;17.20;41.30;;;;;;5074093;28;19961;-69
2022/02/24 06:51:57;;;;;;;;;;;17.20;41.20;;;;;;5074294;28;19915;-69
2022/02/24 06:54:23;;;;;;;;;;;17.20;41.20;;;;;;5073890;28;20379;-69
2022/02/24 06:56:49;;;;;;;;;;;17.20;41.20;;;;;;5074031;28;19957;-69
2022/02/24 06:59:15;;;;;;;;;;;17.20;41.30;;;;;;5073481;28;19959;-69
2022/02/24 07:01:41;;;;;;;;;;;17.20;41.20;;;;;;5073904;28;19951;-69
2022/02/24 07:04:07;;;;;;;;;;;17.20;41.20;;;;;;5073637;28;19909;-70
2022/02/24 07:06:32;;;;;;;;;;;17.20;41.20;;;;;;5073912;28;19946;-70
2022/02/24 07:08:58;;;;;;;;;;;17.20;41.20;;;;;;5073669;28;20356;-69
2022/02/24 07:11:23;;;;;;;;;;;17.20;41.30;;;;;;5073539;28;19916;-71
2022/02/24 07:13:49;;;;;;;;;;;17.20;41.20;;;;;;5073542;28;19915;-69
2022/02/24 07:16:14;;;;;;;;;;;17.20;41.20;;;;;;5073682;28;20042;-69
2022/02/24 07:18:40;;;;;;;;;;;17.20;41.30;;;;;;5073589;28;20217;-69
2022/02/24 07:21:07;;;;;;;;;;;17.20;41.30;;;;;;5073722;28;20329;-70
2022/02/24 07:23:33;;;;;;;;;;;17.20;41.20;;;;;;5073792;28;19908;-70
2022/02/24 07:25:59;;;;;;;;;;;17.20;41.20;;;;;;5073432;28;19988;-69
2022/02/24 07:28:24;;;;;;;;;;;17.20;41.30;;;;;;5073265;28;19920;-69
2022/02/24 07:30:50;;;;;;;;;;;16.80;40.90;;;;;;5082396;28;20132;-70
2022/02/24 07:33:16;;;;;;;;;;;16.70;41.50;;;;;;5093261;28;19912;-70
2022/02/24 07:35:41;;;;;;;;;;;16.80;41.50;;;;;;5090981;28;20326;-70
2022/02/24 07:38:07;;;;;;;;;;;17.00;41.60;;;;;;5075046;28;19931;-70
2022/02/24 07:40:32;;;;;;;;;;;17.00;41.50;;;;;;5073494;28;19913;-70
2022/02/24 07:42:58;;;;;;;;;;;17.10;41.30;;;;;;5071956;28;19959;-70
2022/02/24 07:45:23;;;;;;;;;;;17.10;41.30;;;;;;5073103;28;19915;-70
2022/02/24 07:47:49;;;;;;;;;;;17.10;41.30;;;;;;5072820;28;19923;-70
2022/02/24 07:50:14;;;;;;;;;;;17.10;41.20;;;;;;5077195;28;19912;-68
2022/02/24 07:52:41;;;;;;;;;;;17.10;41.30;;;;;;5095042;28;20011;-68
2022/02/24 07:55:07;;;;;;;;;;;17.20;41.20;;;;;;5090715;28;19952;-68
2022/02/24 07:57:32;;;;;;;;;;;17.20;41.20;;;;;;5095902;28;19916;-67
2022/02/24 07:59:58;;;;;;;;;;;17.10;41.20;;;;;;5091862;28;19920;-69
2022/02/24 08:02:23;;;;;;;;;;;17.20;41.30;;;;;;5088084;28;19912;-66
2022/02/24 08:04:48;;;;;;;;;;;17.20;41.30;;;;;;5089129;28;20356;-67
2022/02/24 08:07:14;;;;;;;;;;;17.20;41.20;;;;;;5066598;28;20341;-70
2022/02/24 08:09:39;;;;;;;;;;;17.30;41.20;;;;;;5077848;28;19968;-66
2022/02/24 08:14:49;;;;;;;;;;;17.40;41.20;;;;;;5072166;28;20439;-65
2022/02/24 08:17:15;;;;;;;;;;;17.50;41.10;;;;;;5071422;28;19991;-68
2022/02/24 08:19:42;;;;;;;;;;;17.50;41.10;;;;;;5072352;28;19908;-68
2022/02/24 08:22:07;;;;;;;;;;;17.60;41.00;;;;;;5088812;28;19912;-67
2022/02/24 08:24:33;;;;;;;;;;;17.70;40.90;;;;;;5074809;28;20423;-67
2022/02/24 08:26:58;;;;;;;;;;;17.80;40.90;;;;;;5060783;28;19916;-67
2022/02/24 08:29:24;;;;;;;;;;;17.80;40.80;;;;;;5087227;28;20295;-66
2022/02/24 08:31:49;;;;;;;;;;;17.90;40.80;;;;;;5092011;28;19908;-66
2022/02/24 08:34:15;;;;;;;;;;;18.00;40.70;;;;;;5091990;28;19997;-66
2022/02/24 08:36:40;;;;;;;;;;;18.00;40.60;;;;;;5091753;28;19916;-66
2022/02/24 08:39:06;;;;;;;;;;;18.10;40.60;;;;;;5091804;28;20356;-66
2022/02/24 08:41:32;;;;;;;;;;;18.10;40.60;;;;;;5092020;28;19912;-66
2022/02/24 08:43:57;;;;;;;;;;;18.20;40.50;;;;;;5091330;28;19912;-65
2022/02/24 08:46:23;;;;;;;;;;;18.20;40.50;;;;;;5096901;28;19946;-66
2022/02/24 08:48:48;;;;;;;;;;;18.30;40.40;;;;;;5091351;28;20272;-67
2022/02/24 08:51:14;;;;;;;;;;;18.40;40.40;;;;;;5080153;28;19970;-66
2022/02/24 08:53:39;;;;;;;;;;;18.40;40.40;;;;;;5082336;28;19918;-66
2022/02/24 08:56:05;;;;;;;;;;;18.40;40.40;;;;;;5085663;28;19954;-65
2022/02/24 08:58:30;;;;;;;;;;;18.50;40.30;;;;;;5078098;28;20012;-65
2022/02/24 09:00:56;;;;;;;;;;;18.50;40.20;;;;;;5081677;28;20018;-65
2022/02/24 09:03:21;;;;;;;;;;;18.50;40.30;;;;;;5091649;28;19919;-65
2022/02/24 09:05:47;;;;;;;;;;;18.30;40.80;;;;;;5091600;28;19915;-64
2022/02/24 09:08:13;;;;;;;;;;;18.40;40.70;;;;;;5091409;28;19924;-66
2022/02/24 09:10:39;;;;;;;;;;;18.50;40.50;;;;;;5092059;28;20279;-66
2022/02/24 09:13:04;;;;;;;;;;;18.60;40.30;;;;;;5091685;28;19927;-67
2022/02/24 09:15:35;;;;;;;;;;;18.70;40.20;;;;;;5077855;28;20083;-65
2022/02/24 09:18:01;;;;;;;;;;;18.80;40.10;;;;;;5082528;28;19913;-67
2022/02/24 09:20:26;;;;;;;;;;;18.90;40.00;;;;;;5075852;28;19920;-66
2022/02/24 09:22:52;;;;;;;;;;;18.90;40.10;;;;;;5090203;28;19935;-64
2022/02/24 09:25:17;;;;;;;;;;;18.90;40.00;;;;;;5095537;28;20303;-64
2022/02/24 09:27:43;;;;;;;;;;;19.00;39.90;;;;;;5094607;28;20328;-63
2022/02/24 09:30:08;;;;;;;;;;;19.00;40.00;;;;;;5095467;28;20328;-65
2022/02/24 09:32:36;;;;;;;;;;;19.00;40.10;;;;;;5085767;28;19951;-66
2022/02/24 09:35:02;;;;;;;;;;;19.00;40.00;;;;;;5095171;28;20528;-66
2022/02/24 09:37:34;;;;;;;;;;;19.10;39.90;;;;;;5094944;28;19950;-66
2022/02/24 09:39:59;;;;;;;;;;;19.20;39.80;;;;;;5095794;28;20257;-65
2022/02/24 09:42:25;;;;;;;;;;;19.20;39.80;;;;;;5095575;28;19985;-66
2022/02/24 09:44:50;;;;;;;;;;;19.30;39.80;;;;;;5095256;28;20361;-65
2022/02/24 09:47:16;;;;;;;;;;;19.30;39.90;;;;;;5094340;28;19994;-65
2022/02/24 09:49:41;;;;;;;;;;;19.30;39.80;;;;;;5063483;28;19912;-66
2022/02/24 09:52:07;;;;;;;;;;;19.40;39.80;;;;;;5079536;28;20157;-66
2022/02/24 09:54:32;;;;;;;;;;;19.40;39.70;;;;;;5074466;28;19909;-65
2022/02/24 09:56:58;;;;;;;;;;;19.50;39.60;;;;;;5073916;28;19908;-65
2022/02/24 09:59:24;;;;;;;;;;;19.50;39.60;;;;;;5074122;28;19951;-66
2022/02/24 10:01:50;;;;;;;;;;;19.50;39.60;;;;;;5074914;28;19908;-66
2022/02/24 10:04:16;;;;;;;;;;;19.60;39.60;;;;;;5080826;28;20094;-65
2022/02/24 10:06:42;;;;;;;;;;;19.60;39.60;;;;;;5094149;28;19916;-65
2022/02/24 10:09:08;;;;;;;;;;;19.60;39.50;;;;;;5094733;28;19912;-66
2022/02/24 10:11:35;;;;;;;;;;;19.70;39.50;;;;;;5094411;28;19946;-65
2022/02/24 10:14:04;;;;;;;;;;;19.70;39.50;;;;;;5092404;28;19944;-65
2022/02/24 10:16:31;;;;;;;;;;;19.70;39.50;;;;;;5090971;28;20325;-65
2022/02/24 10:18:56;;;;;;;;;;;19.80;39.50;;;;;;5091911;28;19912;-66
2022/02/24 10:21:22;;;;;;;;;;;19.80;39.40;;;;;;5083190;28;19916;-65
2022/02/24 10:23:48;;;;;;;;;;;19.80;39.40;;;;;;5074154;28;20527;-67
2022/02/24 10:26:15;;;;;;;;;;;19.90;39.40;;;;;;5092589;28;20010;-67
2022/02/24 10:28:45;;;;;;;;;;;20.00;39.20;;;;;;5093714;28;19943;-68
2022/02/24 10:31:11;;;;;;;;;;;19.90;39.30;;;;;;5094517;28;19916;-67
2022/02/24 10:33:38;;;;;;;;;;;19.90;39.50;;;;;;5094125;28;19940;-67
2022/02/24 10:36:14;;;;;;;;;;;19.90;39.60;;;;;;5080849;28;19917;-68
2022/02/24 10:38:40;;;;;;;;;;;19.90;39.60;;;;;;5073891;28;20194;-67
2022/02/24 10:41:06;;;;;;;;;;;19.90;39.60;;;;;;5075065;28;19965;-67
2022/02/24 10:43:34;;;;;;;;;;;19.90;39.70;;;;;;5074105;28;19937;-67
2022/02/24 10:46:20;;;;;;;;;;;19.90;39.70;;;;;;5073922;28;19912;-67
2022/02/24 10:48:47;;;;;;;;;;;19.90;39.70;;;;;;5075355;28;19920;-67
2022/02/24 10:51:12;;;;;;;;;;;19.90;39.60;;;;;;5093726;28;20296;-67
2022/02/24 10:53:38;;;;;;;;;;;20.00;39.60;;;;;;5094230;28;19908;-67
2022/02/24 10:56:03;;;;;;;;;;;20.00;39.60;;;;;;5091912;28;19932;-67
2022/02/24 10:58:32;;;;;;;;;;;20.00;39.60;;;;;;5082613;28;19909;-67
2022/02/24 11:01:06;;;;;;;;;;;20.00;39.60;;;;;;5088924;28;20378;-68
2022/02/24 11:03:32;;;;;;;;;;;20.00;39.50;;;;;;5073679;28;19948;-68
2022/02/24 11:05:58;;;;;;;;;;;20.00;39.50;;;;;;5073191;28;20390;-68
2022/02/24 11:08:24;;;;;;;;;;;20.00;39.60;;;;;;5073346;28;19955;-68
2022/02/24 11:10:51;;;;;;;;;;;20.00;39.50;;;;;;5073163;28;20279;-68
2022/02/24 11:13:16;;;;;;;;;;;20.00;39.50;;;;;;5073323;28;19969;-68
2022/02/24 11:15:42;;;;;;;;;;;20.10;39.50;;;;;;5084095;28;19911;-68
2022/02/24 11:18:07;;;;;;;;;;;20.10;39.50;;;;;;5093338;28;19916;-66
2022/02/24 11:20:33;;;;;;;;;;;20.10;39.50;;;;;;5093426;28;19908;-64
2022/02/24 11:23:00;;;;;;;;;;;20.20;39.20;;;;;;5091493;28;20418;-67
2022/02/24 11:25:28;;;;;;;;;;;20.20;39.30;;;;;;5092974;28;19912;-66
2022/02/24 11:27:55;;;;;;;;;;;20.10;39.40;;;;;;5092003;28;19943;-66
2022/02/24 11:30:26;;;;;;;;;;;20.20;39.40;;;;;;5073524;28;20047;-66
2022/02/24 11:32:52;;;;;;;;;;;20.20;39.40;;;;;;5072907;28;19908;-66
2022/02/24 11:35:18;;;;;;;;;;;20.30;39.30;;;;;;5083742;28;20322;-66
2022/02/24 11:37:53;;;;;;;;;;;20.40;39.10;;;;;;5091948;28;20371;-65
2022/02/24 11:40:26;;;;;;;;;;;20.50;39.10;;;;;;5093490;28;19915;-65
2022/02/24 11:43:01;;;;;;;;;;;20.50;39.00;;;;;;5078077;28;20004;-65
2022/02/24 11:45:29;;;;;;;;;;;20.50;39.00;;;;;;5072068;28;20275;-65
2022/02/24 11:47:56;;;;;;;;;;;20.60;39.00;;;;;;5072189;28;19920;-65
2022/02/24 11:50:28;;;;;;;;;;;20.60;39.00;;;;;;5072636;28;19995;-65
2022/02/24 11:52:53;;;;;;;;;;;20.60;39.00;;;;;;5072624;28;19916;-65
2022/02/24 11:55:38;;;;;;;;;;;20.60;39.00;;;;;;5072228;28;20291;-65
2022/02/24 11:58:27;;;;;;;;;;;20.70;38.90;;;;;;5071691;28;19908;-65
2022/02/24 12:01:11;;;;;;;;;;;20.80;38.90;;;;;;5066431;28;20233;-66
2022/02/24 12:03:46;;;;;;;;;;;20.90;38.80;;;;;;5089631;28;19946;-67
2022/02/24 12:06:12;;;;;;;;;;;20.80;38.90;;;;;;5092262;28;19949;-66
2022/02/24 12:08:56;;;;;;;;;;;20.80;38.90;;;;;;5091789;28;20379;-68
2022/02/24 12:11:33;;;;;;;;;;;20.80;38.90;;;;;;5090892;28;20018;-65
2022/02/24 12:13:59;;;;;;;;;;;20.80;39.10;;;;;;5083804;28;19927;-66
2022/02/24 12:16:25;;;;;;;;;;;20.80;39.10;;;;;;5073943;28;20287;-65
2022/02/24 12:18:51;;;;;;;;;;;20.80;39.10;;;;;;5091598;28;20006;-65
2022/02/24 12:21:27;;;;;;;;;;;20.80;39.00;;;;;;5092253;28;19909;-66
2022/02/24 12:23:53;;;;;;;;;;;20.90;39.00;;;;;;5092218;28;19948;-64
2022/02/24 12:26:34;;;;;;;;;;;20.90;39.00;;;;;;5091879;28;19952;-67
2022/02/24 12:29:19;;;;;;;;;;;20.90;39.00;;;;;;5079223;28;19977;-67
2022/02/24 12:31:45;;;;;;;;;;;20.90;39.00;;;;;;5071856;28;20000;-66
2022/02/24 12:34:10;;;;;;;;;;;21.00;39.00;;;;;;5071570;28;19997;-65
2022/02/24 12:36:36;;;;;;;;;;;20.90;39.00;;;;;;5085711;28;19915;-66
2022/02/24 12:39:04;;;;;;;;;;;21.00;39.00;;;;;;5079663;28;20066;-66
2022/02/24 12:41:29;;;;;;;;;;;21.00;39.00;;;;;;5071733;28;19908;-66
2022/02/24 12:43:55;;;;;;;;;;;21.00;39.10;;;;;;5071582;28;19923;-65
2022/02/24 12:46:20;;;;;;;;;;;20.90;39.10;;;;;;5071647;28;20039;-65
2022/02/24 12:48:46;;;;;;;;;;;21.00;39.10;;;;;;5077294;28;19915;-65
2022/02/24 12:51:11;;;;;;;;;;;21.00;39.00;;;;;;5091079;28;19920;-66
2022/02/24 12:53:37;;;;;;;;;;;20.90;39.10;;;;;;5092169;28;19912;-65
2022/02/24 12:56:03;;;;;;;;;;;21.00;39.20;;;;;;5090893;28;19942;-64
2022/02/24 12:58:28;;;;;;;;;;;20.90;39.20;;;;;;5094091;28;19912;-67
2022/02/24 13:00:55;;;;;;;;;;;21.00;39.10;;;;;;5095068;28;20598;-68
2022/02/24 13:03:24;;;;;;;;;;;20.90;39.10;;;;;;5094746;28;20378;-67
2022/02/24 13:05:57;;;;;;;;;;;20.90;39.30;;;;;;5096015;28;19909;-68
2022/02/24 13:11:08;;;;;;;;;;;20.70;39.40;;;;;;5095913;28;19914;-67
2022/02/24 13:13:34;;;;;;;;;;;20.80;39.40;;;;;;5095743;28;19918;-68
2022/02/24 13:16:01;;;;;;;;;;;20.80;39.30;;;;;;5095518;28;20328;-67
2022/02/24 13:18:27;;;;;;;;;;;20.80;39.30;;;;;;5095591;28;19908;-67
2022/02/24 13:21:02;;;;;;;;;;;20.90;39.30;;;;;;5081532;28;19912;-68
2022/02/24 13:23:29;;;;;;;;;;;20.80;39.30;;;;;;5073041;28;20419;-67
2022/02/24 13:25:56;;;;;;;;;;;20.80;39.20;;;;;;5073011;28;19908;-67
2022/02/24 13:28:22;;;;;;;;;;;20.90;39.20;;;;;;5085347;28;19977;-67
2022/02/24 13:30:48;;;;;;;;;;;20.90;39.30;;;;;;5093717;28;19909;-68
2022/02/24 13:33:15;;;;;;;;;;;20.80;39.20;;;;;;5093466;28;20363;-67
2022/02/24 13:35:40;;;;;;;;;;;20.90;39.20;;;;;;5095365;28;20360;-68
2022/02/24 13:38:07;;;;;;;;;;;20.90;39.20;;;;;;5086736;28;20030;-68
2022/02/24 13:40:33;;;;;;;;;;;20.90;39.20;;;;;;5095376;28;20401;-68
2022/02/24 13:43:05;;;;;;;;;;;20.90;39.20;;;;;;5095466;28;19915;-68
2022/02/24 13:45:31;;;;;;;;;;;20.90;39.20;;;;;;5095449;28;20347;-68
2022/02/24 13:47:58;;;;;;;;;;;20.90;39.20;;;;;;5095222;28;20392;-68
2022/02/24 13:50:42;;;;;;;;;;;20.90;39.20;;;;;;5076109;28;20378;-68
2022/02/24 13:53:12;;;;;;;;;;;20.90;39.20;;;;;;5082390;28;19930;-68
2022/02/24 13:55:48;;;;;;;;;;;20.80;39.20;;;;;;5095145;28;19965;-68
2022/02/24 13:58:13;;;;;;;;;;;20.90;39.20;;;;;;5092266;28;19999;-68
2022/02/24 14:00:38;;;;;;;;;;;20.90;39.20;;;;;;5094896;28;20031;-68
2022/02/24 14:03:11;;;;;;;;;;;20.80;39.20;;;;;;5095022;28;19912;-68
2022/02/24 14:05:37;;;;;;;;;;;20.80;39.20;;;;;;5094842;28;19934;-68
2022/02/24 14:08:03;;;;;;;;;;;20.80;39.20;;;;;;5095242;28;19916;-67
2022/02/24 14:10:28;;;;;;;;;;;20.90;39.00;;;;;;5093857;28;20313;-68
2022/02/24 14:12:54;;;;;;;;;;;20.90;39.00;;;;;;5095016;28;19952;-67
2022/02/24 14:15:19;;;;;;;;;;;20.90;39.00;;;;;;5094621;28;19999;-67
2022/02/24 14:17:45;;;;;;;;;;;20.90;39.10;;;;;;5094598;28;19950;-67